sensor_id;sensor_type;location;lat;lon;timestamp;pressure;altitude;pressure_sealevel;temperature
43292;BMP280;28754;47.700;7.924;2024-02-15T00:01:08;91830.97;;;8.69
43292;BMP280;28754;47.700;7.924;2024-02-15T00:03:54;91826.63;;;8.69
43292;BMP280;28754;47.700;7.924;2024-02-15T00:06:41;91825.09;;;8.68
43292;BMP280;28754;47.700;7.924;2024-02-15T00:09:28;91836.28;;;8.67
43292;BMP280;28754;47.700;7.924;2024-02-15T00:12:14;91822.75;;;8.67
43292;BMP280;28754;47.700;7.924;2024-02-15T00:15:01;91836.06;;;8.69
43292;BMP280;28754;47.700;7.924;2024-02-15T00:17:48;91837.84;;;8.68
43292;BMP280;28754;47.700;7.924;2024-02-15T00:20:34;91834.75;;;8.66
43292;BMP280;28754;47.700;7.924;2024-02-15T00:23:21;91832.91;;;8.62
43292;BMP280;28754;47.700;7.924;2024-02-15T00:26:08;91831.56;;;8.59
43292;BMP280;28754;47.700;7.924;2024-02-15T00:28:58;91824.47;;;8.61
43292;BMP280;28754;47.700;7.924;2024-02-15T00:31:45;91819.06;;;8.58
43292;BMP280;28754;47.700;7.924;2024-02-15T00:34:32;91826.72;;;8.58
43292;BMP280;28754;47.700;7.924;2024-02-15T00:37:20;91823.41;;;8.57
43292;BMP280;28754;47.700;7.924;2024-02-15T00:40:07;91822.59;;;8.57
43292;BMP280;28754;47.700;7.924;2024-02-15T00:42:55;91827.25;;;8.60
43292;BMP280;28754;47.700;7.924;2024-02-15T00:45:41;91820.91;;;8.62
43292;BMP280;28754;47.700;7.924;2024-02-15T00:48:28;91823.53;;;8.67
43292;BMP280;28754;47.700;7.924;2024-02-15T00:51:17;91822.28;;;8.70
43292;BMP280;28754;47.700;7.924;2024-02-15T00:54:04;91826.94;;;8.73
43292;BMP280;28754;47.700;7.924;2024-02-15T00:56:51;91826.94;;;8.73
43292;BMP280;28754;47.700;7.924;2024-02-15T00:59:38;91828.47;;;8.74
43292;BMP280;28754;47.700;7.924;2024-02-15T01:02:24;91820.34;;;8.77
43292;BMP280;28754;47.700;7.924;2024-02-15T01:05:11;91820.09;;;8.78
43292;BMP280;28754;47.700;7.924;2024-02-15T01:08:01;91819.66;;;8.81
43292;BMP280;28754;47.700;7.924;2024-02-15T01:10:48;91821.19;;;8.82
43292;BMP280;28754;47.700;7.924;2024-02-15T01:13:35;91815.84;;;8.84
43292;BMP280;28754;47.700;7.924;2024-02-15T01:16:21;91819.47;;;8.88
43292;BMP280;28754;47.700;7.924;2024-02-15T01:19:08;91818.22;;;8.90
43292;BMP280;28754;47.700;7.924;2024-02-15T01:21:55;91822.09;;;8.92
43292;BMP280;28754;47.700;7.924;2024-02-15T01:24:42;91818.81;;;8.97
43292;BMP280;28754;47.700;7.924;2024-02-15T01:27:29;91822.91;;;8.98
43292;BMP280;28754;47.700;7.924;2024-02-15T01:30:16;91818.59;;;8.98
43292;BMP280;28754;47.700;7.924;2024-02-15T01:33:03;91821.16;;;8.98
43292;BMP280;28754;47.700;7.924;2024-02-15T01:35:50;91815.25;;;8.98
43292;BMP280;28754;47.700;7.924;2024-02-15T01:38:37;91813.19;;;8.95
43292;BMP280;28754;47.700;7.924;2024-02-15T01:41:23;91808.56;;;8.92
43292;BMP280;28754;47.700;7.924;2024-02-15T01:44:10;91810.78;;;8.89
43292;BMP280;28754;47.700;7.924;2024-02-15T01:47:00;91814.81;;;8.85
43292;BMP280;28754;47.700;7.924;2024-02-15T01:49:47;91807.59;;;8.77
43292;BMP280;28754;47.700;7.924;2024-02-15T01:52:35;91801.84;;;8.70
43292;BMP280;28754;47.700;7.924;2024-02-15T01:55:22;91803.88;;;8.68
43292;BMP280;28754;47.700;7.924;2024-02-15T01:58:08;91805.59;;;8.62
43292;BMP280;28754;47.700;7.924;2024-02-15T02:00:56;91797.19;;;8.62
43292;BMP280;28754;47.700;7.924;2024-02-15T02:03:44;91799.19;;;8.60
43292;BMP280;28754;47.700;7.924;2024-02-15T02:06:31;91809.63;;;8.58
43292;BMP280;28754;47.700;7.924;2024-02-15T02:09:18;91799.09;;;8.55
43292;BMP280;28754;47.700;7.924;2024-02-15T02:12:05;91791.69;;;8.54
43292;BMP280;28754;47.700;7.924;2024-02-15T02:14:51;91784.28;;;8.52
43292;BMP280;28754;47.700;7.924;2024-02-15T02:17:38;91791.38;;;8.50
43292;BMP280;28754;47.700;7.924;2024-02-15T02:20:27;91782.97;;;8.50
43292;BMP280;28754;47.700;7.924;2024-02-15T02:23:15;91784.75;;;8.49
43292;BMP280;28754;47.700;7.924;2024-02-15T02:26:02;91785.97;;;8.47
43292;BMP280;28754;47.700;7.924;2024-02-15T02:28:50;91783.66;;;8.45
43292;BMP280;28754;47.700;7.924;2024-02-15T02:31:39;91784.91;;;8.43
43292;BMP280;28754;47.700;7.924;2024-02-15T02:34:26;91790.78;;;8.43
43292;BMP280;28754;47.700;7.924;2024-02-15T02:37:13;91788.22;;;8.43
43292;BMP280;28754;47.700;7.924;2024-02-15T02:40:00;91792.78;;;8.41
43292;BMP280;28754;47.700;7.924;2024-02-15T02:42:52;91788.69;;;8.40
43292;BMP280;28754;47.700;7.924;2024-02-15T02:45:39;91789.69;;;8.39
43292;BMP280;28754;47.700;7.924;2024-02-15T02:48:26;91779.97;;;8.36
43292;BMP280;28754;47.700;7.924;2024-02-15T02:51:14;91784.00;;;8.32
43292;BMP280;28754;47.700;7.924;2024-02-15T02:54:01;91769.63;;;8.26
43292;BMP280;28754;47.700;7.924;2024-02-15T02:56:51;91777.03;;;8.28
43292;BMP280;28754;47.700;7.924;2024-02-15T02:59:38;91775.72;;;8.25
43292;BMP280;28754;47.700;7.924;2024-02-15T03:02:26;91773.19;;;8.25
43292;BMP280;28754;47.700;7.924;2024-02-15T03:05:13;91765.44;;;8.21
43292;BMP280;28754;47.700;7.924;2024-02-15T03:08:01;91761.34;;;8.20
43292;BMP280;28754;47.700;7.924;2024-02-15T03:10:47;91761.56;;;8.18
43292;BMP280;28754;47.700;7.924;2024-02-15T03:13:34;91759.50;;;8.15
43292;BMP280;28754;47.700;7.924;2024-02-15T03:16:22;91754.16;;;8.17
43292;BMP280;28754;47.700;7.924;2024-02-15T03:19:11;91752.84;;;8.14
43292;BMP280;28754;47.700;7.924;2024-02-15T03:21:58;91755.66;;;8.13
43292;BMP280;28754;47.700;7.924;2024-02-15T03:24:45;91748.44;;;8.10
43292;BMP280;28754;47.700;7.924;2024-02-15T03:27:31;91752.97;;;8.08
43292;BMP280;28754;47.700;7.924;2024-02-15T03:30:19;91757.53;;;8.06
43292;BMP280;28754;47.700;7.924;2024-02-15T03:33:06;91758.56;;;8.05
43292;BMP280;28754;47.700;7.924;2024-02-15T03:35:53;91757.00;;;8.04
43292;BMP280;28754;47.700;7.924;2024-02-15T03:38:39;91748.03;;;8.01
43292;BMP280;28754;47.700;7.924;2024-02-15T03:41:28;91754.38;;;7.99
43292;BMP280;28754;47.700;7.924;2024-02-15T03:44:19;91748.19;;;7.95
43292;BMP280;28754;47.700;7.924;2024-02-15T03:47:05;91754.31;;;7.94
43292;BMP280;28754;47.700;7.924;2024-02-15T03:49:52;91750.19;;;7.93
43292;BMP280;28754;47.700;7.924;2024-02-15T03:52:40;91752.19;;;7.91
43292;BMP280;28754;47.700;7.924;2024-02-15T03:55:27;91744.56;;;7.91
43292;BMP280;28754;47.700;7.924;2024-02-15T03:58:14;91748.13;;;7.90
43292;BMP280;28754;47.700;7.924;2024-02-15T04:01:01;91755.44;;;7.86
43292;BMP280;28754;47.700;7.924;2024-02-15T04:03:48;91751.59;;;7.84
43292;BMP280;28754;47.700;7.924;2024-02-15T04:06:35;91739.88;;;7.83
43292;BMP280;28754;47.700;7.924;2024-02-15T04:09:22;91743.41;;;7.82
43292;BMP280;28754;47.700;7.924;2024-02-15T04:12:09;91751.03;;;7.82
43292;BMP280;28754;47.700;7.924;2024-02-15T04:14:55;91753.53;;;7.77
43292;BMP280;28754;47.700;7.924;2024-02-15T04:17:46;91761.94;;;7.78
43292;BMP280;28754;47.700;7.924;2024-02-15T04:20:33;91765.50;;;7.77
43292;BMP280;28754;47.700;7.924;2024-02-15T04:23:20;91756.56;;;7.74
43292;BMP280;28754;47.700;7.924;2024-02-15T04:26:07;91758.56;;;7.72
43292;BMP280;28754;47.700;7.924;2024-02-15T04:28:54;91758.56;;;7.72
43292;BMP280;28754;47.700;7.924;2024-02-15T04:31:41;91759.53;;;7.71
43292;BMP280;28754;47.700;7.924;2024-02-15T04:34:29;91759.00;;;7.69
43292;BMP280;28754;47.700;7.924;2024-02-15T04:37:17;91759.75;;;7.70
43292;BMP280;28754;47.700;7.924;2024-02-15T04:40:05;91765.09;;;7.68
43292;BMP280;28754;47.700;7.924;2024-02-15T04:42:56;91754.91;;;7.68
43292;BMP280;28754;47.700;7.924;2024-02-15T04:45:44;91749.81;;;7.68
43292;BMP280;28754;47.700;7.924;2024-02-15T04:48:32;91765.09;;;7.68
43292;BMP280;28754;47.700;7.924;2024-02-15T04:51:20;91746.72;;;7.66
43292;BMP280;28754;47.700;7.924;2024-02-15T04:54:08;91734.97;;;7.65
43292;BMP280;28754;47.700;7.924;2024-02-15T04:56:54;91741.63;;;7.66
43292;BMP280;28754;47.700;7.924;2024-02-15T04:59:42;91734.75;;;7.67
43292;BMP280;28754;47.700;7.924;2024-02-15T05:02:33;91729.66;;;7.67
43292;BMP280;28754;47.700;7.924;2024-02-15T05:05:23;91739.84;;;7.67
43292;BMP280;28754;47.700;7.924;2024-02-15T05:08:11;91737.31;;;7.67
43292;BMP280;28754;47.700;7.924;2024-02-15T05:10:58;91739.09;;;7.66
43292;BMP280;28754;47.700;7.924;2024-02-15T05:13:45;91717.66;;;7.67
43292;BMP280;28754;47.700;7.924;2024-02-15T05:16:35;91719.22;;;7.68
43292;BMP280;28754;47.700;7.924;2024-02-15T05:19:25;91710.28;;;7.66
43292;BMP280;28754;47.700;7.924;2024-02-15T05:22:11;91713.59;;;7.66
43292;BMP280;28754;47.700;7.924;2024-02-15T05:24:58;91707.25;;;7.69
43292;BMP280;28754;47.700;7.924;2024-02-15T05:27:45;91704.72;;;7.69
43292;BMP280;28754;47.700;7.924;2024-02-15T05:30:33;91700.84;;;7.66
43292;BMP280;28754;47.700;7.924;2024-02-15T05:33:19;91706.72;;;7.67
43292;BMP280;28754;47.700;7.924;2024-02-15T05:36:06;91701.84;;;7.65
43292;BMP280;28754;47.700;7.924;2024-02-15T05:38:55;91697.75;;;7.64
43292;BMP280;28754;47.700;7.924;2024-02-15T05:41:41;91708.72;;;7.65
43292;BMP280;28754;47.700;7.924;2024-02-15T05:44:28;91688.56;;;7.63
43292;BMP280;28754;47.700;7.924;2024-02-15T05:47:15;91693.66;;;7.63
43292;BMP280;28754;47.700;7.924;2024-02-15T05:50:01;91692.66;;;7.64
43292;BMP280;28754;47.700;7.924;2024-02-15T05:52:53;91687.56;;;7.64
43292;BMP280;28754;47.700;7.924;2024-02-15T05:55:41;91688.88;;;7.67
43292;BMP280;28754;47.700;7.924;2024-02-15T05:58:31;91697.59;;;7.71
43292;BMP280;28754;47.700;7.924;2024-02-15T06:01:18;91685.09;;;7.69
43292;BMP280;28754;47.700;7.924;2024-02-15T06:04:05;91697.81;;;7.69
43292;BMP280;28754;47.700;7.924;2024-02-15T06:06:54;91683.22;;;7.65
43292;BMP280;28754;47.700;7.924;2024-02-15T06:09:45;91685.00;;;7.64
43292;BMP280;28754;47.700;7.924;2024-02-15T06:12:31;91692.19;;;7.67
43292;BMP280;28754;47.700;7.924;2024-02-15T06:15:18;91693.75;;;7.68
43292;BMP280;28754;47.700;7.924;2024-02-15T06:18:05;91697.81;;;7.69
43292;BMP280;28754;47.700;7.924;2024-02-15T06:20:56;91688.88;;;7.67
43292;BMP280;28754;47.700;7.924;2024-02-15T06:23:49;91693.66;;;7.63
43292;BMP280;28754;47.700;7.924;2024-02-15T06:26:37;91687.88;;;7.68
43292;BMP280;28754;47.700;7.924;2024-02-15T06:29:24;91693.81;;;7.73
43292;BMP280;28754;47.700;7.924;2024-02-15T06:32:29;91675.81;;;7.80
43292;BMP280;28754;47.700;7.924;2024-02-15T06:35:34;91695.44;;;7.79
43292;BMP280;28754;47.700;7.924;2024-02-15T06:38:39;91689.03;;;7.77
43292;BMP280;28754;47.700;7.924;2024-02-15T06:41:44;91692.34;;;7.77
43292;BMP280;28754;47.700;7.924;2024-02-15T06:44:31;91691.88;;;7.80
43292;BMP280;28754;47.700;7.924;2024-02-15T06:47:18;91685.09;;;7.86
43292;BMP280;28754;47.700;7.924;2024-02-15T06:50:06;91678.25;;;7.91
43292;BMP280;28754;47.700;7.924;2024-02-15T06:52:56;91682.44;;;7.97
43292;BMP280;28754;47.700;7.924;2024-02-15T06:55:42;91690.94;;;8.02
43292;BMP280;28754;47.700;7.924;2024-02-15T06:58:29;91678.47;;;8.06
43292;BMP280;28754;47.700;7.924;2024-02-15T07:01:16;91687.78;;;8.12
43292;BMP280;28754;47.700;7.924;2024-02-15T07:04:03;91682.72;;;8.17
43292;BMP280;28754;47.700;7.924;2024-02-15T07:06:50;91682.56;;;8.23
43292;BMP280;28754;47.700;7.924;2024-02-15T07:09:38;91679.94;;;8.34
43292;BMP280;28754;47.700;7.924;2024-02-15T07:12:25;91673.50;;;8.53
43292;BMP280;28754;47.700;7.924;2024-02-15T07:15:12;91673.69;;;8.68
43292;BMP280;28754;47.700;7.924;2024-02-15T07:17:59;91659.19;;;8.73
43292;BMP280;28754;47.700;7.924;2024-02-15T07:20:46;91671.75;;;8.75
43292;BMP280;28754;47.700;7.924;2024-02-15T07:23:32;91667.34;;;8.70
43292;BMP280;28754;47.700;7.924;2024-02-15T07:26:19;91675.00;;;8.70
43292;BMP280;28754;47.700;7.924;2024-02-15T07:29:06;91671.75;;;8.75
43292;BMP280;28754;47.700;7.924;2024-02-15T07:31:54;91671.03;;;8.79
43292;BMP280;28754;47.700;7.924;2024-02-15T07:34:40;91673.84;;;8.83
43292;BMP280;28754;47.700;7.924;2024-02-15T07:37:29;91662.09;;;8.82
43292;BMP280;28754;47.700;7.924;2024-02-15T07:40:15;91667.75;;;8.84
43292;BMP280;28754;47.700;7.924;2024-02-15T07:43:02;91658.66;;;8.92
43292;BMP280;28754;47.700;7.924;2024-02-15T07:45:49;91658.53;;;9.35
43292;BMP280;28754;47.700;7.924;2024-02-15T07:48:36;91656.78;;;9.71
43292;BMP280;28754;47.700;7.924;2024-02-15T07:51:24;91652.69;;;9.70
43292;BMP280;28754;47.700;7.924;2024-02-15T07:54:11;91654.66;;;9.58
43292;BMP280;28754;47.700;7.924;2024-02-15T07:56:58;91660.94;;;9.46
43292;BMP280;28754;47.700;7.924;2024-02-15T07:59:45;91654.00;;;9.42
43292;BMP280;28754;47.700;7.924;2024-02-15T08:02:34;91649.63;;;9.37
43292;BMP280;28754;47.700;7.924;2024-02-15T08:05:21;91658.53;;;9.35
43292;BMP280;28754;47.700;7.924;2024-02-15T08:08:07;91653.91;;;9.32
43292;BMP280;28754;47.700;7.924;2024-02-15T08:10:54;91647.25;;;9.31
43292;BMP280;28754;47.700;7.924;2024-02-15T08:13:45;91640.59;;;9.30
43292;BMP280;28754;47.700;7.924;2024-02-15T08:16:35;91642.16;;;9.31
43292;BMP280;28754;47.700;7.924;2024-02-15T08:19:21;91629.13;;;9.32
43292;BMP280;28754;47.700;7.924;2024-02-15T08:22:09;91633.22;;;9.33
43292;BMP280;28754;47.700;7.924;2024-02-15T08:24:56;91630.47;;;9.40
43292;BMP280;28754;47.700;7.924;2024-02-15T08:27:46;91621.06;;;9.45
43292;BMP280;28754;47.700;7.924;2024-02-15T08:30:37;91618.78;;;9.49
43292;BMP280;28754;47.700;7.924;2024-02-15T08:33:26;91614.69;;;9.48
43292;BMP280;28754;47.700;7.924;2024-02-15T08:36:14;91624.38;;;9.46
43292;BMP280;28754;47.700;7.924;2024-02-15T08:39:01;91622.28;;;9.43
43292;BMP280;28754;47.700;7.924;2024-02-15T08:41:50;91617.19;;;9.43
43292;BMP280;28754;47.700;7.924;2024-02-15T08:44:39;91623.09;;;9.43
43292;BMP280;28754;47.700;7.924;2024-02-15T08:47:26;91620.28;;;9.45
43292;BMP280;28754;47.700;7.924;2024-02-15T08:50:13;91610.06;;;9.45
43292;BMP280;28754;47.700;7.924;2024-02-15T08:53:02;91608.56;;;9.49
43292;BMP280;28754;47.700;7.924;2024-02-15T08:55:52;91603.97;;;9.51
43292;BMP280;28754;47.700;7.924;2024-02-15T08:58:39;91594.78;;;9.55
43292;BMP280;28754;47.700;7.924;2024-02-15T09:01:26;91601.72;;;9.59
43292;BMP280;28754;47.700;7.924;2024-02-15T09:04:13;91605.09;;;9.64
43292;BMP280;28754;47.700;7.924;2024-02-15T09:06:59;91611.28;;;9.73
43292;BMP280;28754;47.700;7.924;2024-02-15T09:09:50;91609.06;;;9.87
43292;BMP280;28754;47.700;7.924;2024-02-15T09:12:39;91611.50;;;10.03
43292;BMP280;28754;47.700;7.924;2024-02-15T09:15:26;91604.41;;;10.20
43292;BMP280;28754;47.700;7.924;2024-02-15T09:18:12;91600.94;;;10.40
43292;BMP280;28754;47.700;7.924;2024-02-15T09:20:59;91607.41;;;10.62
43292;BMP280;28754;47.700;7.924;2024-02-15T09:23:46;91603.13;;;10.88
43292;BMP280;28754;47.700;7.924;2024-02-15T09:26:33;91595.22;;;11.14
43292;BMP280;28754;47.700;7.924;2024-02-15T09:29:20;91595.00;;;11.50
43292;BMP280;28754;47.700;7.924;2024-02-15T09:32:07;91600.66;;;11.76
43292;BMP280;28754;47.700;7.924;2024-02-15T09:34:54;91594.69;;;12.10
43292;BMP280;28754;47.700;7.924;2024-02-15T09:37:48;91595.34;;;12.55
43292;BMP280;28754;47.700;7.924;2024-02-15T09:40:35;91595.59;;;13.11
43292;BMP280;28754;47.700;7.924;2024-02-15T09:43:22;91595.84;;;13.48
43292;BMP280;28754;47.700;7.924;2024-02-15T09:46:13;91594.56;;;13.78
43292;BMP280;28754;47.700;7.924;2024-02-15T09:48:59;91589.78;;;14.23
43292;BMP280;28754;47.700;7.924;2024-02-15T09:51:48;91581.84;;;14.66
43292;BMP280;28754;47.700;7.924;2024-02-15T09:54:40;91579.13;;;15.17
43292;BMP280;28754;47.700;7.924;2024-02-15T09:57:30;91585.97;;;15.63
43292;BMP280;28754;47.700;7.924;2024-02-15T10:00:21;91565.59;;;15.93
43292;BMP280;28754;47.700;7.924;2024-02-15T10:03:11;91577.09;;;16.14
43292;BMP280;28754;47.700;7.924;2024-02-15T10:06:00;91571.78;;;16.50
43292;BMP280;28754;47.700;7.924;2024-02-15T10:08:47;91571.88;;;16.99
43292;BMP280;28754;47.700;7.924;2024-02-15T10:11:34;91567.41;;;17.61
43292;BMP280;28754;47.700;7.924;2024-02-15T10:14:20;91575.25;;;18.13
43292;BMP280;28754;47.700;7.924;2024-02-15T10:17:08;91564.81;;;18.26
43292;BMP280;28754;47.700;7.924;2024-02-15T10:20:06;91562.63;;;18.50
43292;BMP280;28754;47.700;7.924;2024-02-15T10:23:15;91561.91;;;19.04
43292;BMP280;28754;47.700;7.924;2024-02-15T10:26:20;91556.97;;;19.83
43292;BMP280;28754;47.700;7.924;2024-02-15T10:29:11;91548.97;;;20.59
43292;BMP280;28754;47.700;7.924;2024-02-15T10:32:00;91542.75;;;21.17
43292;BMP280;28754;47.700;7.924;2024-02-15T10:34:47;91542.25;;;21.52
43292;BMP280;28754;47.700;7.924;2024-02-15T10:37:34;91526.25;;;21.33
43292;BMP280;28754;47.700;7.924;2024-02-15T10:40:21;91531.53;;;20.96
43292;BMP280;28754;47.700;7.924;2024-02-15T10:43:07;91529.34;;;20.78
43292;BMP280;28754;47.700;7.924;2024-02-15T10:45:56;91521.75;;;20.56
43292;BMP280;28754;47.700;7.924;2024-02-15T10:48:43;91527.13;;;20.60
43292;BMP280;28754;47.700;7.924;2024-02-15T10:51:30;91526.34;;;20.96
43292;BMP280;28754;47.700;7.924;2024-02-15T10:57:40;91526.25;;;22.26
43292;BMP280;28754;47.700;7.924;2024-02-15T11:00:33;91522.72;;;22.42
43292;BMP280;28754;47.700;7.924;2024-02-15T11:03:26;91526.41;;;22.41
43292;BMP280;28754;47.700;7.924;2024-02-15T11:06:20;91520.66;;;22.36
43292;BMP280;28754;47.700;7.924;2024-02-15T11:09:10;91511.81;;;22.28
43292;BMP280;28754;47.700;7.924;2024-02-15T11:11:58;91509.69;;;22.10
43292;BMP280;28754;47.700;7.924;2024-02-15T11:14:45;91510.13;;;21.80
43292;BMP280;28754;47.700;7.924;2024-02-15T11:23:27;91504.88;;;20.99
43292;BMP280;28754;47.700;7.924;2024-02-15T11:26:44;91500.63;;;20.58
43292;BMP280;28754;47.700;7.924;2024-02-15T11:32:45;91482.16;;;21.08
43292;BMP280;28754;47.700;7.924;2024-02-15T11:36:30;91479.63;;;21.20
43292;BMP280;28754;47.700;7.924;2024-02-15T11:39:40;91475.59;;;20.82
43292;BMP280;28754;47.700;7.924;2024-02-15T11:42:28;91472.63;;;20.18
43292;BMP280;28754;47.700;7.924;2024-02-15T11:45:16;91467.41;;;19.30
43292;BMP280;28754;47.700;7.924;2024-02-15T11:48:10;91466.84;;;18.53
43292;BMP280;28754;47.700;7.924;2024-02-15T11:50:59;91467.28;;;17.78
43292;BMP280;28754;47.700;7.924;2024-02-15T11:54:02;91463.47;;;17.24
43292;BMP280;28754;47.700;7.924;2024-02-15T11:56:56;91457.38;;;17.07
43292;BMP280;28754;47.700;7.924;2024-02-15T12:00:23;91453.81;;;16.81
43292;BMP280;28754;47.700;7.924;2024-02-15T12:03:28;91449.88;;;17.05
43292;BMP280;28754;47.700;7.924;2024-02-15T12:06:33;91450.25;;;17.77
43292;BMP280;28754;47.700;7.924;2024-02-15T12:09:39;91450.69;;;18.56
43292;BMP280;28754;47.700;7.924;2024-02-15T12:12:54;91451.38;;;19.37
43292;BMP280;28754;47.700;7.924;2024-02-15T12:16:00;91431.03;;;19.64
43292;BMP280;28754;47.700;7.924;2024-02-15T12:19:05;91429.47;;;19.80
43292;BMP280;28754;47.700;7.924;2024-02-15T12:21:52;91430.72;;;19.74
43292;BMP280;28754;47.700;7.924;2024-02-15T12:24:40;91438.53;;;19.57
43292;BMP280;28754;47.700;7.924;2024-02-15T12:27:27;91424.66;;;19.11
43292;BMP280;28754;47.700;7.924;2024-02-15T12:30:16;91423.22;;;18.47
43292;BMP280;28754;47.700;7.924;2024-02-15T12:33:13;91421.66;;;17.90
43292;BMP280;28754;47.700;7.924;2024-02-15T12:36:06;91413.13;;;17.60
43292;BMP280;28754;47.700;7.924;2024-02-15T12:39:01;91417.16;;;17.44
43292;BMP280;28754;47.700;7.924;2024-02-15T12:41:49;91417.56;;;17.38
43292;BMP280;28754;47.700;7.924;2024-02-15T12:44:44;91416.03;;;17.37
43292;BMP280;28754;47.700;7.924;2024-02-15T12:47:32;91404.38;;;17.48
43292;BMP280;28754;47.700;7.924;2024-02-15T12:50:22;91410.84;;;17.58
43292;BMP280;28754;47.700;7.924;2024-02-15T12:53:08;91404.38;;;17.48
43292;BMP280;28754;47.700;7.924;2024-02-15T12:55:55;91397.97;;;17.45
43292;BMP280;28754;47.700;7.924;2024-02-15T12:58:42;91393.00;;;17.57
43292;BMP280;28754;47.700;7.924;2024-02-15T13:01:29;91400.06;;;17.65
43292;BMP280;28754;47.700;7.924;2024-02-15T13:04:24;91394.13;;;17.64
43292;BMP280;28754;47.700;7.924;2024-02-15T13:07:14;91388.50;;;17.71
43292;BMP280;28754;47.700;7.924;2024-02-15T13:10:01;91383.94;;;17.76
43292;BMP280;28754;47.700;7.924;2024-02-15T13:12:48;91376.13;;;17.68
43292;BMP280;28754;47.700;7.924;2024-02-15T13:15:35;91378.78;;;17.46
43292;BMP280;28754;47.700;7.924;2024-02-15T13:18:24;91383.72;;;17.13
43292;BMP280;28754;47.700;7.924;2024-02-15T13:21:12;91382.44;;;16.80
43292;BMP280;28754;47.700;7.924;2024-02-15T13:23:59;91379.66;;;16.55
43292;BMP280;28754;47.700;7.924;2024-02-15T13:26:46;91380.84;;;16.36
43292;BMP280;28754;47.700;7.924;2024-02-15T13:29:33;91367.00;;;16.18
43292;BMP280;28754;47.700;7.924;2024-02-15T13:32:20;91368.06;;;16.04
43292;BMP280;28754;47.700;7.924;2024-02-15T13:35:10;91374.69;;;15.83
43292;BMP280;28754;47.700;7.924;2024-02-15T13:38:00;91373.72;;;15.66
43292;BMP280;28754;47.700;7.924;2024-02-15T13:40:47;91374.97;;;15.55
43292;BMP280;28754;47.700;7.924;2024-02-15T13:43:35;91369.09;;;15.50
43292;BMP280;28754;47.700;7.924;2024-02-15T13:46:22;91371.03;;;15.45
43292;BMP280;28754;47.700;7.924;2024-02-15T13:49:09;91368.53;;;15.40
43292;BMP280;28754;47.700;7.924;2024-02-15T13:51:59;91368.72;;;15.30
43292;BMP280;28754;47.700;7.924;2024-02-15T13:54:49;91359.53;;;15.24
43292;BMP280;28754;47.700;7.924;2024-02-15T13:57:36;91363.53;;;15.16
43292;BMP280;28754;47.700;7.924;2024-02-15T14:00:23;91353.34;;;15.07
43292;BMP280;28754;47.700;7.924;2024-02-15T14:03:15;91358.13;;;15.00
43292;BMP280;28754;47.700;7.924;2024-02-15T14:06:04;91358.50;;;14.93
43292;BMP280;28754;47.700;7.924;2024-02-15T14:08:51;91345.25;;;14.81
43292;BMP280;28754;47.700;7.924;2024-02-15T14:11:39;91351.00;;;14.78
43292;BMP280;28754;47.700;7.924;2024-02-15T14:14:25;91351.34;;;14.72
43292;BMP280;28754;47.700;7.924;2024-02-15T14:17:12;91341.03;;;14.72
43292;BMP280;28754;47.700;7.924;2024-02-15T14:20:00;91336.47;;;14.69
43292;BMP280;28754;47.700;7.924;2024-02-15T14:22:49;91324.22;;;14.61
43292;BMP280;28754;47.700;7.924;2024-02-15T14:25:45;91325.31;;;14.55
43292;BMP280;28754;47.700;7.924;2024-02-15T14:28:31;91325.13;;;14.52
43292;BMP280;28754;47.700;7.924;2024-02-15T14:31:18;91321.38;;;14.44
43292;BMP280;28754;47.700;7.924;2024-02-15T14:34:23;91331.78;;;14.40
43292;BMP280;28754;47.700;7.924;2024-02-15T14:37:11;91325.06;;;14.39
43292;BMP280;28754;47.700;7.924;2024-02-15T14:39:57;91324.88;;;14.35
43292;BMP280;28754;47.700;7.924;2024-02-15T14:42:44;91317.56;;;14.24
43292;BMP280;28754;47.700;7.924;2024-02-15T14:45:35;91316.41;;;14.16
43292;BMP280;28754;47.700;7.924;2024-02-15T14:48:24;91319.03;;;14.11
43292;BMP280;28754;47.700;7.924;2024-02-15T14:51:15;91321.31;;;14.13
43292;BMP280;28754;47.700;7.924;2024-02-15T14:54:04;91322.09;;;14.13
43292;BMP280;28754;47.700;7.924;2024-02-15T14:56:51;91325.44;;;14.14
43292;BMP280;28754;47.700;7.924;2024-02-15T14:59:37;91317.50;;;14.10
43292;BMP280;28754;47.700;7.924;2024-02-15T15:02:25;91315.19;;;14.09
43292;BMP280;28754;47.700;7.924;2024-02-15T15:05:15;91308.81;;;14.07
43292;BMP280;28754;47.700;7.924;2024-02-15T15:08:20;91311.19;;;14.03
43292;BMP280;28754;47.700;7.924;2024-02-15T15:11:25;91314.03;;;14.02
43292;BMP280;28754;47.700;7.924;2024-02-15T15:14:30;91312.78;;;13.99
43292;BMP280;28754;47.700;7.924;2024-02-15T15:17:17;91323.56;;;14.01
43292;BMP280;28754;47.700;7.924;2024-02-15T15:20:05;91313.78;;;13.98
43292;BMP280;28754;47.700;7.924;2024-02-15T15:22:55;91308.22;;;13.91
43292;BMP280;28754;47.700;7.924;2024-02-15T15:25:42;91311.84;;;13.90
43292;BMP280;28754;47.700;7.924;2024-02-15T15:28:29;91300.50;;;13.91
43292;BMP280;28754;47.700;7.924;2024-02-15T15:31:15;91304.63;;;13.92
43292;BMP280;28754;47.700;7.924;2024-02-15T15:34:02;91301.56;;;13.90
43292;BMP280;28754;47.700;7.924;2024-02-15T15:36:49;91307.22;;;13.87
43292;BMP280;28754;47.700;7.924;2024-02-15T15:39:36;91311.69;;;13.82
43292;BMP280;28754;47.700;7.924;2024-02-15T15:42:23;91313.13;;;13.70
43292;BMP280;28754;47.700;7.924;2024-02-15T15:45:10;91317.38;;;13.61
43292;BMP280;28754;47.700;7.924;2024-02-15T15:47:57;91314.56;;;13.57
43292;BMP280;28754;47.700;7.924;2024-02-15T15:50:44;91319.53;;;13.54
43292;BMP280;28754;47.700;7.924;2024-02-15T15:53:30;91311.34;;;13.47
43292;BMP280;28754;47.700;7.924;2024-02-15T15:56:17;91306.78;;;13.44
43292;BMP280;28754;47.700;7.924;2024-02-15T15:59:04;91300.16;;;13.38
43292;BMP280;28754;47.700;7.924;2024-02-15T16:01:52;91294.81;;;13.35
43292;BMP280;28754;47.700;7.924;2024-02-15T16:04:46;91290.00;;;13.28
43292;BMP280;28754;47.700;7.924;2024-02-15T16:07:36;91299.56;;;13.23
43292;BMP280;28754;47.700;7.924;2024-02-15T16:10:29;91297.63;;;13.10
43292;BMP280;28754;47.700;7.924;2024-02-15T16:13:16;91298.22;;;13.02
43292;BMP280;28754;47.700;7.924;2024-02-15T16:16:04;91298.03;;;12.99
43292;BMP280;28754;47.700;7.924;2024-02-15T16:18:51;91303.91;;;12.99
43292;BMP280;28754;47.700;7.924;2024-02-15T16:21:38;91305.22;;;12.97
43292;BMP280;28754;47.700;7.924;2024-02-15T16:24:25;91303.97;;;12.94
43292;BMP280;28754;47.700;7.924;2024-02-15T16:27:11;91304.50;;;12.91
43292;BMP280;28754;47.700;7.924;2024-02-15T16:29:58;91299.38;;;12.91
43292;BMP280;28754;47.700;7.924;2024-02-15T16:32:45;91307.31;;;12.95
43292;BMP280;28754;47.700;7.924;2024-02-15T16:35:32;91300.53;;;13.03